sensor_id;sensor_type;location;lat;lon;timestamp;temperature;humidity
31687;DHT22;18285;51.330;4.946;2022-08-11T00:19:10;25.20;43.90
31687;DHT22;18285;51.330;4.946;2022-08-11T01:08:13;25.20;43.80
31687;DHT22;18285;51.330;4.946;2022-08-11T01:57:11;25.10;43.70
31687;DHT22;18285;51.330;4.946;2022-08-11T02:21:40;25.00;43.60
31687;DHT22;18285;51.330;4.946;2022-08-11T02:46:24;25.00;43.60
31687;DHT22;18285;51.330;4.946;2022-08-11T03:10:48;25.00;43.70
31687;DHT22;18285;51.330;4.946;2022-08-11T03:35:21;24.90;43.70
31687;DHT22;18285;51.330;4.946;2022-08-11T05:13:51;24.70;43.70
31687;DHT22;18285;51.330;4.946;2022-08-11T05:38:33;24.60;43.70
31687;DHT22;18285;51.330;4.946;2022-08-11T06:03:02;24.60;43.70
31687;DHT22;18285;51.330;4.946;2022-08-11T06:27:20;24.60;43.80
31687;DHT22;18285;51.330;4.946;2022-08-11T06:51:34;24.50;44.00
31687;DHT22;18285;51.330;4.946;2022-08-11T07:15:50;24.30;44.70
31687;DHT22;18285;51.330;4.946;2022-08-11T07:40:03;24.30;45.20
31687;DHT22;18285;51.330;4.946;2022-08-11T08:04:16;24.30;45.20
31687;DHT22;18285;51.330;4.946;2022-08-11T08:28:45;24.40;45.50
31687;DHT22;18285;51.330;4.946;2022-08-11T08:53:03;24.40;46.10
31687;DHT22;18285;51.330;4.946;2022-08-11T09:17:19;24.70;45.90
31687;DHT22;18285;51.330;4.946;2022-08-11T09:41:31;24.80;45.60
31687;DHT22;18285;51.330;4.946;2022-08-11T10:05:52;24.80;45.70
31687;DHT22;18285;51.330;4.946;2022-08-11T10:30:25;24.80;45.40
31687;DHT22;18285;51.330;4.946;2022-08-11T10:54:55;24.90;44.70
31687;DHT22;18285;51.330;4.946;2022-08-11T11:19:25;24.80;44.90
31687;DHT22;18285;51.330;4.946;2022-08-11T11:43:36;25.00;45.20
31687;DHT22;18285;51.330;4.946;2022-08-11T12:07:49;25.00;44.10
31687;DHT22;18285;51.330;4.946;2022-08-11T12:32:19;24.90;43.70
31687;DHT22;18285;51.330;4.946;2022-08-11T12:56:40;24.90;43.70
31687;DHT22;18285;51.330;4.946;2022-08-11T13:21:11;24.90;43.30
31687;DHT22;18285;51.330;4.946;2022-08-11T13:45:24;24.80;43.20
31687;DHT22;18285;51.330;4.946;2022-08-11T14:09:38;24.90;43.60
31687;DHT22;18285;51.330;4.946;2022-08-11T14:33:49;24.90;43.00
31687;DHT22;18285;51.330;4.946;2022-08-11T14:58:02;24.90;42.70
31687;DHT22;18285;51.330;4.946;2022-08-11T15:22:14;24.80;42.60
31687;DHT22;18285;51.330;4.946;2022-08-11T15:46:46;24.80;42.70
31687;DHT22;18285;51.330;4.946;2022-08-11T16:10:58;24.80;43.00
31687;DHT22;18285;51.330;4.946;2022-08-11T16:35:17;24.90;43.30
31687;DHT22;18285;51.330;4.946;2022-08-11T16:59:47;24.90;43.40
31687;DHT22;18285;51.330;4.946;2022-08-11T17:24:04;24.90;43.60
31687;DHT22;18285;51.330;4.946;2022-08-11T17:48:16;24.90;44.10
31687;DHT22;18285;51.330;4.946;2022-08-11T18:12:36;25.00;43.80
31687;DHT22;18285;51.330;4.946;2022-08-11T18:37:10;25.00;43.70
31687;DHT22;18285;51.330;4.946;2022-08-11T19:01:41;25.00;43.80
31687;DHT22;18285;51.330;4.946;2022-08-11T19:26:11;24.90;43.80
31687;DHT22;18285;51.330;4.946;2022-08-11T19:50:42;24.90;43.90
31687;DHT22;18285;51.330;4.946;2022-08-11T20:15:12;24.90;44.00
31687;DHT22;18285;51.330;4.946;2022-08-11T20:39:43;24.90;43.80
31687;DHT22;18285;51.330;4.946;2022-08-11T21:04:13;24.80;43.60
31687;DHT22;18285;51.330;4.946;2022-08-11T21:28:43;24.80;43.50
31687;DHT22;18285;51.330;4.946;2022-08-11T21:53:14;24.80;43.50
31687;DHT22;18285;51.330;4.946;2022-08-11T22:17:43;24.80;43.60
31687;DHT22;18285;51.330;4.946;2022-08-11T22:42:12;24.70;43.50
31687;DHT22;18285;51.330;4.946;2022-08-11T23:06:41;24.70;43.40
31687;DHT22;18285;51.330;4.946;2022-08-11T23:31:12;24.70;43.30
31687;DHT22;18285;51.330;4.946;2022-08-11T23:55:42;24.60;43.20
